sensor_id;sensor_type;location;lat;lon;timestamp;P1;durP1;ratioP1;P2;durP2;ratioP2
62832;SDS011;48891;49.220;6.920;2022-11-20T00:00:34;3.70;;;2.67;;
62832;SDS011;48891;49.220;6.920;2022-11-20T00:03:00;4.70;;;3.10;;
62832;SDS011;48891;49.220;6.920;2022-11-20T00:05:25;6.10;;;3.30;;
62832;SDS011;48891;49.220;6.920;2022-11-20T00:07:50;3.92;;;2.78;;
62832;SDS011;48891;49.220;6.920;2022-11-20T00:10:15;3.95;;;2.67;;
62832;SDS011;48891;49.220;6.920;2022-11-20T00:12:40;3.55;;;2.88;;
62832;SDS011;48891;49.220;6.920;2022-11-20T00:15:05;4.80;;;3.20;;
62832;SDS011;48891;49.220;6.920;2022-11-20T00:17:31;5.07;;;3.00;;
62832;SDS011;48891;49.220;6.920;2022-11-20T00:19:56;4.40;;;2.97;;
62832;SDS011;48891;49.220;6.920;2022-11-20T00:22:21;3.75;;;2.65;;
62832;SDS011;48891;49.220;6.920;2022-11-20T00:24:46;4.57;;;2.95;;
62832;SDS011;48891;49.220;6.920;2022-11-20T00:27:11;4.68;;;2.83;;
62832;SDS011;48891;49.220;6.920;2022-11-20T00:29:36;3.72;;;2.83;;
62832;SDS011;48891;49.220;6.920;2022-11-20T00:32:01;3.28;;;2.35;;
62832;SDS011;48891;49.220;6.920;2022-11-20T00:34:27;3.73;;;2.73;;
62832;SDS011;48891;49.220;6.920;2022-11-20T00:36:52;3.80;;;2.88;;
62832;SDS011;48891;49.220;6.920;2022-11-20T00:39:17;4.63;;;3.03;;
62832;SDS011;48891;49.220;6.920;2022-11-20T00:41:42;5.40;;;2.90;;
62832;SDS011;48891;49.220;6.920;2022-11-20T00:44:07;3.67;;;2.80;;
62832;SDS011;48891;49.220;6.920;2022-11-20T00:46:32;4.77;;;3.00;;
62832;SDS011;48891;49.220;6.920;2022-11-20T00:48:57;3.95;;;2.70;;
62832;SDS011;48891;49.220;6.920;2022-11-20T00:51:23;4.33;;;3.03;;
62832;SDS011;48891;49.220;6.920;2022-11-20T00:53:48;4.38;;;3.03;;
62832;SDS011;48891;49.220;6.920;2022-11-20T00:56:14;5.15;;;3.15;;
62832;SDS011;48891;49.220;6.920;2022-11-20T00:58:41;3.63;;;2.72;;
62832;SDS011;48891;49.220;6.920;2022-11-20T01:01:10;5.05;;;3.00;;
62832;SDS011;48891;49.220;6.920;2022-11-20T01:03:36;3.60;;;2.90;;
62832;SDS011;48891;49.220;6.920;2022-11-20T01:06:02;4.68;;;3.10;;
62832;SDS011;48891;49.220;6.920;2022-11-20T01:08:31;3.58;;;2.85;;
62832;SDS011;48891;49.220;6.920;2022-11-20T01:13:22;4.88;;;2.90;;
62832;SDS011;48891;49.220;6.920;2022-11-20T01:15:47;4.13;;;3.00;;
62832;SDS011;48891;49.220;6.920;2022-11-20T01:18:12;4.38;;;2.90;;
62832;SDS011;48891;49.220;6.920;2022-11-20T01:20:37;4.32;;;2.85;;
62832;SDS011;48891;49.220;6.920;2022-11-20T01:23:03;4.47;;;2.85;;
62832;SDS011;48891;49.220;6.920;2022-11-20T01:25:28;4.60;;;2.83;;
62832;SDS011;48891;49.220;6.920;2022-11-20T01:27:53;3.67;;;2.77;;
62832;SDS011;48891;49.220;6.920;2022-11-20T01:30:18;3.90;;;2.70;;
62832;SDS011;48891;49.220;6.920;2022-11-20T01:32:43;4.40;;;2.97;;
62832;SDS011;48891;49.220;6.920;2022-11-20T01:35:08;4.88;;;3.03;;
62832;SDS011;48891;49.220;6.920;2022-11-20T01:37:33;4.00;;;2.70;;
62832;SDS011;48891;49.220;6.920;2022-11-20T01:39:59;4.00;;;2.63;;
62832;SDS011;48891;49.220;6.920;2022-11-20T01:42:24;3.72;;;2.50;;
62832;SDS011;48891;49.220;6.920;2022-11-20T01:44:53;5.07;;;2.72;;
62832;SDS011;48891;49.220;6.920;2022-11-20T01:47:40;4.55;;;2.70;;
62832;SDS011;48891;49.220;6.920;2022-11-20T01:50:15;4.45;;;2.80;;
62832;SDS011;48891;49.220;6.920;2022-11-20T01:52:49;4.38;;;2.78;;
62832;SDS011;48891;49.220;6.920;2022-11-20T01:55:31;3.70;;;2.90;;
62832;SDS011;48891;49.220;6.920;2022-11-20T01:57:57;3.30;;;2.47;;
62832;SDS011;48891;49.220;6.920;2022-11-20T02:00:22;4.15;;;2.92;;
62832;SDS011;48891;49.220;6.920;2022-11-20T02:02:48;3.75;;;3.00;;
62832;SDS011;48891;49.220;6.920;2022-11-20T02:05:20;4.50;;;2.80;;
62832;SDS011;48891;49.220;6.920;2022-11-20T02:07:47;4.50;;;2.83;;
62832;SDS011;48891;49.220;6.920;2022-11-20T02:10:13;3.38;;;2.63;;
62832;SDS011;48891;49.220;6.920;2022-11-20T02:12:38;4.93;;;2.80;;
62832;SDS011;48891;49.220;6.920;2022-11-20T02:15:03;4.15;;;2.60;;
62832;SDS011;48891;49.220;6.920;2022-11-20T02:17:28;4.40;;;3.17;;
62832;SDS011;48891;49.220;6.920;2022-11-20T02:19:54;3.85;;;2.47;;
62832;SDS011;48891;49.220;6.920;2022-11-20T02:22:21;4.68;;;2.80;;
62832;SDS011;48891;49.220;6.920;2022-11-20T02:24:49;3.38;;;2.45;;
62832;SDS011;48891;49.220;6.920;2022-11-20T02:27:16;3.60;;;2.80;;
62832;SDS011;48891;49.220;6.920;2022-11-20T02:29:46;4.45;;;2.42;;
62832;SDS011;48891;49.220;6.920;2022-11-20T02:32:19;3.55;;;2.92;;
62832;SDS011;48891;49.220;6.920;2022-11-20T02:34:45;6.13;;;3.00;;
62832;SDS011;48891;49.220;6.920;2022-11-20T02:37:10;3.53;;;2.50;;
62832;SDS011;48891;49.220;6.920;2022-11-20T02:39:35;3.70;;;2.70;;
62832;SDS011;48891;49.220;6.920;2022-11-20T02:42:00;3.63;;;2.58;;
62832;SDS011;48891;49.220;6.920;2022-11-20T02:44:25;3.95;;;2.67;;
62832;SDS011;48891;49.220;6.920;2022-11-20T02:46:51;3.90;;;2.97;;
62832;SDS011;48891;49.220;6.920;2022-11-20T02:49:16;4.65;;;2.83;;
62832;SDS011;48891;49.220;6.920;2022-11-20T02:51:41;4.00;;;2.60;;
62832;SDS011;48891;49.220;6.920;2022-11-20T02:54:06;4.40;;;3.05;;
62832;SDS011;48891;49.220;6.920;2022-11-20T02:56:31;4.35;;;2.88;;
62832;SDS011;48891;49.220;6.920;2022-11-20T02:58:56;3.13;;;2.22;;
62832;SDS011;48891;49.220;6.920;2022-11-20T03:01:21;3.40;;;2.75;;
62832;SDS011;48891;49.220;6.920;2022-11-20T03:03:46;4.95;;;2.83;;
62832;SDS011;48891;49.220;6.920;2022-11-20T03:06:12;3.20;;;2.40;;
62832;SDS011;48891;49.220;6.920;2022-11-20T03:08:37;5.30;;;2.85;;
62832;SDS011;48891;49.220;6.920;2022-11-20T03:11:03;3.80;;;2.60;;
62832;SDS011;48891;49.220;6.920;2022-11-20T03:13:28;4.82;;;2.70;;
62832;SDS011;48891;49.220;6.920;2022-11-20T03:15:53;3.95;;;2.53;;
62832;SDS011;48891;49.220;6.920;2022-11-20T03:18:18;4.50;;;2.40;;
62832;SDS011;48891;49.220;6.920;2022-11-20T03:20:43;3.78;;;2.70;;
62832;SDS011;48891;49.220;6.920;2022-11-20T03:23:09;3.65;;;2.60;;
62832;SDS011;48891;49.220;6.920;2022-11-20T03:25:34;3.53;;;2.60;;
62832;SDS011;48891;49.220;6.920;2022-11-20T03:27:59;3.30;;;2.58;;
62832;SDS011;48891;49.220;6.920;2022-11-20T03:30:24;3.58;;;2.67;;
62832;SDS011;48891;49.220;6.920;2022-11-20T03:32:52;3.75;;;2.42;;
62832;SDS011;48891;49.220;6.920;2022-11-20T03:35:17;3.15;;;2.40;;
62832;SDS011;48891;49.220;6.920;2022-11-20T03:37:42;3.90;;;2.53;;
62832;SDS011;48891;49.220;6.920;2022-11-20T03:40:07;3.33;;;2.60;;
62832;SDS011;48891;49.220;6.920;2022-11-20T03:42:33;3.42;;;2.50;;
62832;SDS011;48891;49.220;6.920;2022-11-20T03:44:58;4.38;;;2.60;;
62832;SDS011;48891;49.220;6.920;2022-11-20T03:47:23;3.67;;;2.50;;
62832;SDS011;48891;49.220;6.920;2022-11-20T03:49:48;3.63;;;2.83;;
62832;SDS011;48891;49.220;6.920;2022-11-20T03:52:13;3.58;;;2.50;;
62832;SDS011;48891;49.220;6.920;2022-11-20T03:54:38;3.80;;;2.50;;
62832;SDS011;48891;49.220;6.920;2022-11-20T03:57:03;3.33;;;2.30;;
62832;SDS011;48891;49.220;6.920;2022-11-20T03:59:28;4.72;;;2.50;;
62832;SDS011;48891;49.220;6.920;2022-11-20T04:01:54;3.33;;;2.45;;
62832;SDS011;48891;49.220;6.920;2022-11-20T04:04:19;3.28;;;2.30;;
62832;SDS011;48891;49.220;6.920;2022-11-20T04:06:44;3.78;;;2.72;;
62832;SDS011;48891;49.220;6.920;2022-11-20T04:09:09;3.72;;;2.38;;
62832;SDS011;48891;49.220;6.920;2022-11-20T04:11:35;4.88;;;2.53;;
62832;SDS011;48891;49.220;6.920;2022-11-20T04:14:01;4.05;;;2.53;;
62832;SDS011;48891;49.220;6.920;2022-11-20T04:16:29;3.10;;;2.20;;
62832;SDS011;48891;49.220;6.920;2022-11-20T04:18:55;2.90;;;2.28;;
62832;SDS011;48891;49.220;6.920;2022-11-20T04:21:20;4.20;;;2.40;;
62832;SDS011;48891;49.220;6.920;2022-11-20T04:23:46;3.28;;;2.30;;
62832;SDS011;48891;49.220;6.920;2022-11-20T04:26:11;2.53;;;2.00;;
62832;SDS011;48891;49.220;6.920;2022-11-20T04:28:37;4.03;;;2.30;;
62832;SDS011;48891;49.220;6.920;2022-11-20T04:31:06;3.90;;;2.33;;
62832;SDS011;48891;49.220;6.920;2022-11-20T04:33:32;3.78;;;2.60;;
62832;SDS011;48891;49.220;6.920;2022-11-20T04:36:01;3.38;;;2.30;;
62832;SDS011;48891;49.220;6.920;2022-11-20T04:38:26;3.38;;;2.35;;
62832;SDS011;48891;49.220;6.920;2022-11-20T04:40:55;3.50;;;2.63;;
62832;SDS011;48891;49.220;6.920;2022-11-20T04:43:20;3.13;;;2.30;;
62832;SDS011;48891;49.220;6.920;2022-11-20T04:45:50;3.38;;;2.25;;
62832;SDS011;48891;49.220;6.920;2022-11-20T04:48:15;4.88;;;2.60;;
62832;SDS011;48891;49.220;6.920;2022-11-20T04:50:40;3.50;;;2.40;;
62832;SDS011;48891;49.220;6.920;2022-11-20T04:53:05;3.65;;;2.30;;
62832;SDS011;48891;49.220;6.920;2022-11-20T04:55:30;2.65;;;2.17;;
62832;SDS011;48891;49.220;6.920;2022-11-20T04:57:55;3.17;;;2.30;;
62832;SDS011;48891;49.220;6.920;2022-11-20T05:00:20;3.60;;;2.30;;
62832;SDS011;48891;49.220;6.920;2022-11-20T05:02:45;3.25;;;2.20;;
62832;SDS011;48891;49.220;6.920;2022-11-20T05:05:10;3.00;;;2.15;;
62832;SDS011;48891;49.220;6.920;2022-11-20T05:07:36;3.90;;;2.35;;
62832;SDS011;48891;49.220;6.920;2022-11-20T05:10:01;3.03;;;2.15;;
62832;SDS011;48891;49.220;6.920;2022-11-20T05:12:26;3.80;;;2.38;;
62832;SDS011;48891;49.220;6.920;2022-11-20T05:14:51;3.50;;;2.60;;
62832;SDS011;48891;49.220;6.920;2022-11-20T05:17:16;3.45;;;2.38;;
62832;SDS011;48891;49.220;6.920;2022-11-20T05:19:41;3.40;;;2.25;;
62832;SDS011;48891;49.220;6.920;2022-11-20T05:22:06;2.92;;;2.38;;
62832;SDS011;48891;49.220;6.920;2022-11-20T05:24:31;4.43;;;2.60;;
62832;SDS011;48891;49.220;6.920;2022-11-20T05:26:57;2.92;;;2.10;;
62832;SDS011;48891;49.220;6.920;2022-11-20T05:29:22;2.47;;;1.95;;
62832;SDS011;48891;49.220;6.920;2022-11-20T05:31:47;3.08;;;2.20;;
62832;SDS011;48891;49.220;6.920;2022-11-20T05:34:12;3.42;;;2.30;;
62832;SDS011;48891;49.220;6.920;2022-11-20T05:36:37;4.20;;;2.50;;
62832;SDS011;48891;49.220;6.920;2022-11-20T05:39:02;2.70;;;2.08;;
62832;SDS011;48891;49.220;6.920;2022-11-20T05:41:28;3.25;;;2.03;;
62832;SDS011;48891;49.220;6.920;2022-11-20T05:43:53;3.55;;;2.45;;
62832;SDS011;48891;49.220;6.920;2022-11-20T05:46:19;2.78;;;2.00;;
62832;SDS011;48891;49.220;6.920;2022-11-20T05:48:44;4.60;;;2.50;;
62832;SDS011;48891;49.220;6.920;2022-11-20T05:51:11;3.15;;;2.20;;
62832;SDS011;48891;49.220;6.920;2022-11-20T05:53:37;3.25;;;2.30;;
62832;SDS011;48891;49.220;6.920;2022-11-20T05:56:09;2.73;;;2.13;;
62832;SDS011;48891;49.220;6.920;2022-11-20T05:58:35;3.28;;;2.20;;
62832;SDS011;48891;49.220;6.920;2022-11-20T06:01:11;3.90;;;2.38;;
62832;SDS011;48891;49.220;6.920;2022-11-20T06:03:36;3.03;;;2.30;;
62832;SDS011;48891;49.220;6.920;2022-11-20T06:06:02;3.05;;;2.10;;
62832;SDS011;48891;49.220;6.920;2022-11-20T06:08:28;3.30;;;2.28;;
62832;SDS011;48891;49.220;6.920;2022-11-20T06:10:53;2.75;;;2.00;;
62832;SDS011;48891;49.220;6.920;2022-11-20T06:13:18;2.87;;;2.17;;
62832;SDS011;48891;49.220;6.920;2022-11-20T06:15:50;3.78;;;2.17;;
62832;SDS011;48891;49.220;6.920;2022-11-20T06:18:15;3.38;;;2.28;;
62832;SDS011;48891;49.220;6.920;2022-11-20T06:20:40;3.03;;;2.33;;
62832;SDS011;48891;49.220;6.920;2022-11-20T06:23:06;3.08;;;2.20;;
62832;SDS011;48891;49.220;6.920;2022-11-20T06:25:31;2.20;;;2.00;;
62832;SDS011;48891;49.220;6.920;2022-11-20T06:27:56;2.90;;;2.33;;
62832;SDS011;48891;49.220;6.920;2022-11-20T06:30:21;2.78;;;2.30;;
62832;SDS011;48891;49.220;6.920;2022-11-20T06:32:46;2.85;;;2.10;;
62832;SDS011;48891;49.220;6.920;2022-11-20T06:35:11;4.28;;;2.15;;
62832;SDS011;48891;49.220;6.920;2022-11-20T06:37:36;2.97;;;2.20;;
62832;SDS011;48891;49.220;6.920;2022-11-20T06:40:01;3.42;;;2.40;;
62832;SDS011;48891;49.220;6.920;2022-11-20T06:42:27;3.90;;;2.40;;
62832;SDS011;48891;49.220;6.920;2022-11-20T06:44:52;2.60;;;2.03;;
62832;SDS011;48891;49.220;6.920;2022-11-20T06:47:17;3.15;;;2.20;;
62832;SDS011;48891;49.220;6.920;2022-11-20T06:49:42;3.80;;;2.30;;
62832;SDS011;48891;49.220;6.920;2022-11-20T06:52:07;3.15;;;2.10;;
62832;SDS011;48891;49.220;6.920;2022-11-20T06:54:32;2.60;;;1.90;;
62832;SDS011;48891;49.220;6.920;2022-11-20T06:56:57;2.55;;;2.17;;
62832;SDS011;48891;49.220;6.920;2022-11-20T06:59:22;2.58;;;2.08;;
62832;SDS011;48891;49.220;6.920;2022-11-20T07:01:47;2.67;;;2.10;;
62832;SDS011;48891;49.220;6.920;2022-11-20T07:04:13;2.83;;;2.10;;
62832;SDS011;48891;49.220;6.920;2022-11-20T07:06:38;3.10;;;2.30;;
62832;SDS011;48891;49.220;6.920;2022-11-20T07:09:03;2.47;;;2.00;;
62832;SDS011;48891;49.220;6.920;2022-11-20T07:11:28;3.17;;;2.20;;
62832;SDS011;48891;49.220;6.920;2022-11-20T07:13:53;3.70;;;2.20;;
62832;SDS011;48891;49.220;6.920;2022-11-20T07:16:18;2.75;;;2.00;;
62832;SDS011;48891;49.220;6.920;2022-11-20T07:18:43;3.03;;;2.15;;
62832;SDS011;48891;49.220;6.920;2022-11-20T07:21:09;3.00;;;2.10;;
62832;SDS011;48891;49.220;6.920;2022-11-20T07:23:34;3.17;;;2.13;;
62832;SDS011;48891;49.220;6.920;2022-11-20T07:26:03;2.83;;;2.20;;
62832;SDS011;48891;49.220;6.920;2022-11-20T07:30:53;2.90;;;1.98;;
62832;SDS011;48891;49.220;6.920;2022-11-20T07:33:19;3.27;;;2.30;;
62832;SDS011;48891;49.220;6.920;2022-11-20T07:35:44;3.25;;;2.05;;
62832;SDS011;48891;49.220;6.920;2022-11-20T07:38:09;2.35;;;1.95;;
62832;SDS011;48891;49.220;6.920;2022-11-20T07:40:34;3.10;;;2.30;;
62832;SDS011;48891;49.220;6.920;2022-11-20T07:42:59;2.47;;;1.92;;
62832;SDS011;48891;49.220;6.920;2022-11-20T07:45:24;2.67;;;1.95;;
62832;SDS011;48891;49.220;6.920;2022-11-20T07:47:50;3.05;;;2.20;;
62832;SDS011;48891;49.220;6.920;2022-11-20T07:50:15;3.03;;;2.15;;
62832;SDS011;48891;49.220;6.920;2022-11-20T07:52:41;3.20;;;2.08;;
62832;SDS011;48891;49.220;6.920;2022-11-20T07:55:06;2.30;;;1.98;;
62832;SDS011;48891;49.220;6.920;2022-11-20T07:57:31;3.50;;;1.95;;
62832;SDS011;48891;49.220;6.920;2022-11-20T07:59:56;2.83;;;2.05;;
62832;SDS011;48891;49.220;6.920;2022-11-20T08:02:21;3.10;;;2.00;;
62832;SDS011;48891;49.220;6.920;2022-11-20T08:04:47;2.55;;;1.83;;
62832;SDS011;48891;49.220;6.920;2022-11-20T08:07:12;2.35;;;1.90;;
62832;SDS011;48891;49.220;6.920;2022-11-20T08:09:37;2.80;;;2.10;;
62832;SDS011;48891;49.220;6.920;2022-11-20T08:12:02;3.38;;;2.25;;
62832;SDS011;48891;49.220;6.920;2022-11-20T08:14:27;2.13;;;1.90;;
62832;SDS011;48891;49.220;6.920;2022-11-20T08:16:52;3.15;;;2.10;;
62832;SDS011;48891;49.220;6.920;2022-11-20T08:19:18;2.72;;;2.15;;
62832;SDS011;48891;49.220;6.920;2022-11-20T08:21:43;2.20;;;1.88;;
62832;SDS011;48891;49.220;6.920;2022-11-20T08:24:08;2.70;;;1.88;;
62832;SDS011;48891;49.220;6.920;2022-11-20T08:26:34;2.97;;;2.20;;
62832;SDS011;48891;49.220;6.920;2022-11-20T08:29:00;2.25;;;1.90;;
62832;SDS011;48891;49.220;6.920;2022-11-20T08:31:25;3.43;;;2.03;;
62832;SDS011;48891;49.220;6.920;2022-11-20T08:33:51;2.25;;;2.00;;
62832;SDS011;48891;49.220;6.920;2022-11-20T08:36:16;2.95;;;2.00;;
62832;SDS011;48891;49.220;6.920;2022-11-20T08:38:41;2.85;;;1.90;;
62832;SDS011;48891;49.220;6.920;2022-11-20T08:41:06;2.80;;;2.10;;
62832;SDS011;48891;49.220;6.920;2022-11-20T08:43:32;2.87;;;2.17;;
62832;SDS011;48891;49.220;6.920;2022-11-20T08:45:57;2.88;;;2.17;;
62832;SDS011;48891;49.220;6.920;2022-11-20T08:48:22;4.55;;;2.33;;
62832;SDS011;48891;49.220;6.920;2022-11-20T08:50:47;2.80;;;2.10;;
62832;SDS011;48891;49.220;6.920;2022-11-20T08:53:12;3.03;;;2.33;;
62832;SDS011;48891;49.220;6.920;2022-11-20T08:55:37;2.95;;;2.05;;
62832;SDS011;48891;49.220;6.920;2022-11-20T08:58:03;2.60;;;2.00;;
62832;SDS011;48891;49.220;6.920;2022-11-20T09:00:28;2.70;;;1.95;;
62832;SDS011;48891;49.220;6.920;2022-11-20T09:02:53;2.95;;;2.17;;
62832;SDS011;48891;49.220;6.920;2022-11-20T09:05:18;3.30;;;2.40;;
62832;SDS011;48891;49.220;6.920;2022-11-20T09:07:43;2.92;;;2.25;;
62832;SDS011;48891;49.220;6.920;2022-11-20T09:10:08;3.63;;;2.20;;
62832;SDS011;48891;49.220;6.920;2022-11-20T09:12:34;2.42;;;1.92;;
62832;SDS011;48891;49.220;6.920;2022-11-20T09:14:59;2.33;;;1.88;;
62832;SDS011;48891;49.220;6.920;2022-11-20T09:17:24;2.70;;;2.00;;
62832;SDS011;48891;49.220;6.920;2022-11-20T09:19:49;3.63;;;2.20;;
62832;SDS011;48891;49.220;6.920;2022-11-20T09:22:14;2.63;;;2.13;;
62832;SDS011;48891;49.220;6.920;2022-11-20T09:24:39;2.92;;;2.00;;
62832;SDS011;48891;49.220;6.920;2022-11-20T09:27:04;4.13;;;2.22;;
62832;SDS011;48891;49.220;6.920;2022-11-20T09:29:29;3.03;;;2.17;;
62832;SDS011;48891;49.220;6.920;2022-11-20T09:31:55;3.05;;;1.88;;
62832;SDS011;48891;49.220;6.920;2022-11-20T09:34:20;3.50;;;2.05;;
62832;SDS011;48891;49.220;6.920;2022-11-20T09:36:45;2.80;;;1.98;;
62832;SDS011;48891;49.220;6.920;2022-11-20T09:39:10;2.55;;;2.00;;
62832;SDS011;48891;49.220;6.920;2022-11-20T09:49:31;2.38;;;1.80;;
62832;SDS011;48891;49.220;6.920;2022-11-20T09:51:59;3.15;;;2.22;;
62832;SDS011;48891;49.220;6.920;2022-11-20T09:54:31;2.88;;;2.10;;
62832;SDS011;48891;49.220;6.920;2022-11-20T09:57:20;3.05;;;2.08;;
62832;SDS011;48891;49.220;6.920;2022-11-20T09:59:44;2.70;;;2.00;;
62832;SDS011;48891;49.220;6.920;2022-11-20T10:04:50;2.35;;;1.90;;
62832;SDS011;48891;49.220;6.920;2022-11-20T10:07:17;2.55;;;1.88;;
62832;SDS011;48891;49.220;6.920;2022-11-20T10:09:50;2.40;;;1.98;;
62832;SDS011;48891;49.220;6.920;2022-11-20T10:12:22;2.50;;;2.03;;
62832;SDS011;48891;49.220;6.920;2022-11-20T10:20:07;2.78;;;2.05;;
62832;SDS011;48891;49.220;6.920;2022-11-20T10:28:09;2.65;;;1.80;;
62832;SDS011;48891;49.220;6.920;2022-11-20T10:30:43;3.60;;;2.00;;
62832;SDS011;48891;49.220;6.920;2022-11-20T10:33:16;4.25;;;2.20;;
62832;SDS011;48891;49.220;6.920;2022-11-20T10:35:42;2.97;;;2.03;;
62832;SDS011;48891;49.220;6.920;2022-11-20T10:38:14;2.83;;;1.80;;
62832;SDS011;48891;49.220;6.920;2022-11-20T10:40:47;2.42;;;1.90;;
62832;SDS011;48891;49.220;6.920;2022-11-20T10:43:14;3.20;;;1.90;;
62832;SDS011;48891;49.220;6.920;2022-11-20T10:48:16;3.53;;;1.92;;
62832;SDS011;48891;49.220;6.920;2022-11-20T10:56:17;2.90;;;2.00;;
62832;SDS011;48891;49.220;6.920;2022-11-20T11:01:15;3.35;;;2.20;;
62832;SDS011;48891;49.220;6.920;2022-11-20T11:03:41;3.42;;;1.90;;
62832;SDS011;48891;49.220;6.920;2022-11-20T11:06:07;3.30;;;1.95;;
62832;SDS011;48891;49.220;6.920;2022-11-20T11:08:37;3.78;;;2.15;;
62832;SDS011;48891;49.220;6.920;2022-11-20T11:13:47;3.42;;;2.10;;
62832;SDS011;48891;49.220;6.920;2022-11-20T11:16:25;3.10;;;2.23;;
62832;SDS011;48891;49.220;6.920;2022-11-20T11:18:51;2.97;;;2.05;;
62832;SDS011;48891;49.220;6.920;2022-11-20T11:21:24;2.20;;;1.85;;
62832;SDS011;48891;49.220;6.920;2022-11-20T11:23:56;3.20;;;1.90;;
62832;SDS011;48891;49.220;6.920;2022-11-20T11:26:22;2.58;;;2.10;;
62832;SDS011;48891;49.220;6.920;2022-11-20T11:31:23;3.90;;;2.05;;
62832;SDS011;48891;49.220;6.920;2022-11-20T11:33:48;3.28;;;2.00;;
62832;SDS011;48891;49.220;6.920;2022-11-20T11:36:18;3.63;;;2.03;;
62832;SDS011;48891;49.220;6.920;2022-11-20T11:38:44;3.95;;;2.25;;
62832;SDS011;48891;49.220;6.920;2022-11-20T11:41:15;2.72;;;2.03;;
62832;SDS011;48891;49.220;6.920;2022-11-20T11:43:48;2.60;;;1.80;;
62832;SDS011;48891;49.220;6.920;2022-11-20T11:54:09;3.75;;;2.10;;
62832;SDS011;48891;49.220;6.920;2022-11-20T11:56:35;2.80;;;1.98;;
62832;SDS011;48891;49.220;6.920;2022-11-20T11:59:01;2.75;;;1.83;;
62832;SDS011;48891;49.220;6.920;2022-11-20T12:01:51;3.38;;;2.10;;
62832;SDS011;48891;49.220;6.920;2022-11-20T12:05:02;2.60;;;2.03;;
62832;SDS011;48891;49.220;6.920;2022-11-20T12:07:15;4.55;;;2.30;;
62832;SDS011;48891;49.220;6.920;2022-11-20T12:09:44;3.30;;;2.08;;
62832;SDS011;48891;49.220;6.920;2022-11-20T12:12:16;3.30;;;1.90;;
62832;SDS011;48891;49.220;6.920;2022-11-20T12:14:43;3.85;;;2.28;;
62832;SDS011;48891;49.220;6.920;2022-11-20T12:17:10;2.95;;;1.90;;
62832;SDS011;48891;49.220;6.920;2022-11-20T12:19:36;2.80;;;1.92;;
62832;SDS011;48891;49.220;6.920;2022-11-20T12:24:49;4.82;;;2.20;;
62832;SDS011;48891;49.220;6.920;2022-11-20T12:27:28;3.13;;;2.10;;
62832;SDS011;48891;49.220;6.920;2022-11-20T12:40:38;2.63;;;1.98;;
62832;SDS011;48891;49.220;6.920;2022-11-20T12:52:51;4.28;;;2.75;;
62832;SDS011;48891;49.220;6.920;2022-11-20T12:58:05;2.58;;;1.90;;
62832;SDS011;48891;49.220;6.920;2022-11-20T13:00:35;3.55;;;2.17;;
62832;SDS011;48891;49.220;6.920;2022-11-20T13:05:43;3.17;;;2.00;;
62832;SDS011;48891;49.220;6.920;2022-11-20T13:08:20;3.17;;;1.60;;
62832;SDS011;48891;49.220;6.920;2022-11-20T13:16:13;3.60;;;1.98;;
62832;SDS011;48891;49.220;6.920;2022-11-20T13:18:40;2.10;;;1.65;;
62832;SDS011;48891;49.220;6.920;2022-11-20T13:21:18;2.42;;;2.22;;
62832;SDS011;48891;49.220;6.920;2022-11-20T13:23:44;2.80;;;1.80;;
62832;SDS011;48891;49.220;6.920;2022-11-20T13:26:16;4.18;;;2.03;;
62832;SDS011;48891;49.220;6.920;2022-11-20T13:28:42;2.80;;;1.90;;
62832;SDS011;48891;49.220;6.920;2022-11-20T13:33:51;3.38;;;2.10;;
62832;SDS011;48891;49.220;6.920;2022-11-20T13:36:26;4.35;;;2.03;;
62832;SDS011;48891;49.220;6.920;2022-11-20T13:38:52;4.82;;;1.92;;
62832;SDS011;48891;49.220;6.920;2022-11-20T13:41:24;4.55;;;2.17;;
62832;SDS011;48891;49.220;6.920;2022-11-20T13:43:51;2.83;;;1.98;;
62832;SDS011;48891;49.220;6.920;2022-11-20T13:46:16;4.53;;;2.10;;
62832;SDS011;48891;49.220;6.920;2022-11-20T13:48:42;3.10;;;2.17;;
62832;SDS011;48891;49.220;6.920;2022-11-20T13:53:46;4.18;;;2.40;;
62832;SDS011;48891;49.220;6.920;2022-11-20T13:56:20;3.40;;;1.90;;
62832;SDS011;48891;49.220;6.920;2022-11-20T14:01:20;4.28;;;1.98;;
62832;SDS011;48891;49.220;6.920;2022-11-20T14:03:46;6.30;;;2.00;;
62832;SDS011;48891;49.220;6.920;2022-11-20T14:06:13;4.97;;;1.95;;
62832;SDS011;48891;49.220;6.920;2022-11-20T14:08:40;2.80;;;2.00;;
62832;SDS011;48891;49.220;6.920;2022-11-20T14:11:14;3.75;;;1.90;;
62832;SDS011;48891;49.220;6.920;2022-11-20T14:13:50;4.50;;;1.77;;
62832;SDS011;48891;49.220;6.920;2022-11-20T14:16:19;5.97;;;2.15;;
62832;SDS011;48891;49.220;6.920;2022-11-20T14:18:44;3.45;;;1.88;;
62832;SDS011;48891;49.220;6.920;2022-11-20T14:21:09;3.83;;;1.90;;
62832;SDS011;48891;49.220;6.920;2022-11-20T14:23:34;2.78;;;1.55;;
62832;SDS011;48891;49.220;6.920;2022-11-20T14:25:59;3.25;;;2.00;;
62832;SDS011;48891;49.220;6.920;2022-11-20T14:28:25;6.25;;;2.20;;
62832;SDS011;48891;49.220;6.920;2022-11-20T14:30:51;3.40;;;2.13;;
62832;SDS011;48891;49.220;6.920;2022-11-20T14:33:16;4.85;;;1.95;;
62832;SDS011;48891;49.220;6.920;2022-11-20T14:35:45;3.22;;;1.80;;
62832;SDS011;48891;49.220;6.920;2022-11-20T14:38:15;4.20;;;1.88;;
62832;SDS011;48891;49.220;6.920;2022-11-20T14:40:41;2.70;;;1.90;;
62832;SDS011;48891;49.220;6.920;2022-11-20T14:43:23;2.63;;;1.85;;
62832;SDS011;48891;49.220;6.920;2022-11-20T14:48:28;2.20;;;1.60;;
62832;SDS011;48891;49.220;6.920;2022-11-20T14:50:54;3.10;;;1.80;;
62832;SDS011;48891;49.220;6.920;2022-11-20T14:53:23;2.42;;;1.75;;
62832;SDS011;48891;49.220;6.920;2022-11-20T14:55:53;2.38;;;1.70;;
62832;SDS011;48891;49.220;6.920;2022-11-20T14:58:20;3.63;;;1.88;;
62832;SDS011;48891;49.220;6.920;2022-11-20T15:00:53;3.83;;;1.92;;
62832;SDS011;48891;49.220;6.920;2022-11-20T15:03:18;3.33;;;1.85;;
62832;SDS011;48891;49.220;6.920;2022-11-20T15:05:46;2.58;;;1.80;;
62832;SDS011;48891;49.220;6.920;2022-11-20T15:08:11;4.53;;;1.83;;
62832;SDS011;48891;49.220;6.920;2022-11-20T15:10:37;3.72;;;2.00;;
62832;SDS011;48891;49.220;6.920;2022-11-20T15:13:03;3.88;;;2.08;;
62832;SDS011;48891;49.220;6.920;2022-11-20T15:15:33;3.80;;;1.80;;
62832;SDS011;48891;49.220;6.920;2022-11-20T15:18:00;5.20;;;2.20;;
62832;SDS011;48891;49.220;6.920;2022-11-20T15:20:26;2.67;;;1.80;;
62832;SDS011;48891;49.220;6.920;2022-11-20T15:22:52;2.83;;;1.83;;
62832;SDS011;48891;49.220;6.920;2022-11-20T15:25:17;3.60;;;1.90;;
62832;SDS011;48891;49.220;6.920;2022-11-20T15:27:43;3.80;;;2.03;;
62832;SDS011;48891;49.220;6.920;2022-11-20T15:30:12;3.22;;;1.80;;
62832;SDS011;48891;49.220;6.920;2022-11-20T15:32:37;3.53;;;1.90;;
62832;SDS011;48891;49.220;6.920;2022-11-20T15:35:02;3.95;;;1.90;;
62832;SDS011;48891;49.220;6.920;2022-11-20T15:37:28;4.55;;;2.10;;
62832;SDS011;48891;49.220;6.920;2022-11-20T15:39:53;5.03;;;2.10;;
62832;SDS011;48891;49.220;6.920;2022-11-20T15:42:18;5.43;;;2.20;;
62832;SDS011;48891;49.220;6.920;2022-11-20T15:44:43;4.40;;;2.00;;
62832;SDS011;48891;49.220;6.920;2022-11-20T15:47:08;3.28;;;1.95;;
62832;SDS011;48891;49.220;6.920;2022-11-20T15:49:33;4.05;;;1.83;;
62832;SDS011;48891;49.220;6.920;2022-11-20T15:52:00;3.92;;;1.85;;
62832;SDS011;48891;49.220;6.920;2022-11-20T15:54:25;4.63;;;2.00;;
62832;SDS011;48891;49.220;6.920;2022-11-20T15:56:50;3.75;;;2.03;;
62832;SDS011;48891;49.220;6.920;2022-11-20T15:59:15;2.50;;;1.93;;
62832;SDS011;48891;49.220;6.920;2022-11-20T16:01:40;3.67;;;1.80;;
62832;SDS011;48891;49.220;6.920;2022-11-20T16:04:12;4.60;;;1.90;;
62832;SDS011;48891;49.220;6.920;2022-11-20T16:06:38;4.78;;;2.00;;
62832;SDS011;48891;49.220;6.920;2022-11-20T16:09:03;3.67;;;2.20;;
62832;SDS011;48891;49.220;6.920;2022-11-20T16:11:28;3.85;;;1.92;;
62832;SDS011;48891;49.220;6.920;2022-11-20T16:13:53;2.80;;;1.77;;
62832;SDS011;48891;49.220;6.920;2022-11-20T16:16:27;3.00;;;1.90;;
62832;SDS011;48891;49.220;6.920;2022-11-20T16:18:53;2.97;;;2.00;;